Flight Track Log - Related Links

Times and Time Zones

All times are in EDT time to prevent confusion due to time zone crossing. See the N147SW flight status page for this flight to view local times or setup timezone preferences in your user account.

Time Position Orientation Groundspeed Altitude Reporting Facility
EDT Latitude Longitude Course Direction KTS MPH feet Rate Location/Type
Tue 10:46:10 AM 27.9000 -82.7000 221° Southwest 152 175 500  Level Tampa TRACON
Tue 10:46:46 AM 27.8833 -82.7167 221° Southwest 181 208 1,700 2,059 Climbing Tampa TRACON
Tue 10:47:52 AM 27.8333 -82.8000 236° Southwest 271 312 4,000 2,444 Climbing Tampa TRACON
Tue 10:49:01 AM 27.8056 -82.8836 249° West 262 302 7,200 2,748 Climbing Miami Center
Tue 10:50:03 AM 27.7783 -82.9664 250° West 279 321 10,000 2,226 Climbing Miami Center
Tue 10:51:05 AM 27.7700 -83.0619 264° West 319 367 11,800 1,839 Climbing Miami Center
Tue 10:52:07 AM 27.7769 -83.1681 274° West 336 387 13,800 2,081 Climbing Miami Center
Tue 10:53:09 AM 27.7844 -83.2761 275° West 343 395 16,100 2,195 Climbing Miami Center
Tue 10:54:10 AM 27.7911 -83.4086 273° West 350 403 18,300 1,854 Climbing Miami Center
Tue 10:55:12 AM 27.7972 -83.5214 274° West 357 411 19,900 1,452 Climbing Miami Center
Tue 10:56:14 AM 27.8031 -83.6378 273° West 366 421 21,300 1,500 Climbing Miami Center
Tue 10:57:16 AM 27.7878 -83.7544 262° West 376 433 23,000 1,548 Climbing Miami Center
Tue 10:58:18 AM 27.7717 -83.8683 261° West 369 425 24,500 1,210 Climbing Miami Center
Tue 10:59:20 AM 27.7667 -83.9861 267° West 378 435 25,500 1,065 Climbing Miami Center
Tue 11:00:22 AM 27.7833 -84.1372 277° West 402 463 26,700 1,171 Climbing Miami Center
Tue 11:01:23 AM 27.7947 -84.2675 276° West 413 475 27,900 1,268 Climbing Miami Center
Tue 11:02:25 AM 27.8061 -84.3994 276° West 419 482 29,300 1,404 Climbing Miami Center
Tue 11:02:57 AM 27.8167 -84.4786 279° West 422 486 30,100 1,370 Climbing Jacksonville Center
Tue 11:03:57 AM 27.8233 -84.6125 273° West 427 491 31,400 1,400 Climbing Jacksonville Center
Tue 11:04:57 AM 27.8403 -84.7442 278° West 427 491 32,900 1,400 Climbing Jacksonville Center
Tue 11:05:57 AM 27.8467 -84.8803 273° West 427 491 34,200 1,350 Climbing Jacksonville Center
Tue 11:06:57 AM 27.8617 -84.9958 278° West 413 475 35,600 1,500 Climbing Jacksonville Center
Tue 11:07:57 AM 27.8719 -85.1228 275° West 407 468 37,200 1,350 Climbing Jacksonville Center
Tue 11:08:57 AM 27.8822 -85.2450 275° West 397 457 38,300 950 Climbing Jacksonville Center
Tue 11:09:57 AM 27.9136 -85.3561 288° West 387 445 39,100 800 Climbing Jacksonville Center
Tue 11:10:57 AM 27.9489 -85.4744 289° West 382 440 39,900 450 Climbing Jacksonville Center
Tue 11:11:57 AM 27.9839 -85.5903 289° West 387 445 40,000 50 Climbing Jacksonville Center
Tue 11:12:57 AM 28.0189 -85.7136 288° West 395 455 40,000  Level Jacksonville Center
Tue 11:13:57 AM 28.0578 -85.8369 290° West 411 473 40,000  Level Jacksonville Center
Tue 11:14:57 AM 28.0944 -85.9628 288° West 422 486 40,000  Level Jacksonville Center
Tue 11:15:57 AM 28.1353 -86.0911 290° West 433 498 40,000  Level Jacksonville Center
Tue 11:16:57 AM 28.1756 -86.2289 288° West 446 513 40,000  Level Jacksonville Center
Tue 11:17:57 AM 28.2139 -86.3597 288° West 441 507 40,000  Level Jacksonville Center
Tue 11:18:57 AM 28.2539 -86.4953 289° West 454 522 40,000  Level Jacksonville Center
Tue 11:19:57 AM 28.2939 -86.6311 289° West 449 517 40,000  Level Jacksonville Center
Tue 11:20:57 AM 28.3336 -86.7644 289° West 449 517 40,000  Level Jacksonville Center
Tue 11:21:57 AM 28.3694 -86.8956 287° West 449 517 40,000  Level Jacksonville Center
Tue 11:22:57 AM 28.4089 -87.0292 289° West 449 517 40,000  Level Jacksonville Center
Tue 11:23:57 AM 28.4503 -87.1633 289° West 449 517 40,000  Level Jacksonville Center
Tue 11:24:43 AM 28.4786 -87.2617 288° West 446 513 40,000  Level Houston Center
Tue 11:25:45 AM 28.5158 -87.3944 288° West 443 510 40,000  Level Houston Center
Tue 11:26:48 AM 28.5544 -87.5272 288° West 443 510 40,000  Level Houston Center
Tue 11:27:50 AM 28.5922 -87.6594 288° West 443 510 40,000  Level Houston Center
Tue 11:28:52 AM 28.6297 -87.7911 288° West 441 507 40,000  Level Houston Center
Tue 11:29:54 AM 28.6672 -87.9231 288° West 439 505 40,000  Level Houston Center
Tue 11:30:56 AM 28.7108 -88.0808 288° West 438 504 40,000  Level Houston Center
Tue 11:31:58 AM 28.7467 -88.2067 288° West 438 504 40,000  Level Houston Center
Tue 11:33:01 AM 28.7831 -88.3389 287° West 437 503 40,000  Level Houston Center
Tue 11:34:03 AM 28.8203 -88.4706 288° West 438 504 40,000  Level Houston Center
Tue 11:35:05 AM 28.8633 -88.6294 287° West 438 504 40,000  Level Houston Center
Tue 11:36:07 AM 28.8975 -88.7636 286° West 440 506 40,000  Level Houston Center
Tue 11:37:09 AM 28.9253 -88.8975 283° West 438 504 40,000 384 Level Houston Center
Tue 11:38:12 AM 28.9525 -89.0297 283° West 432 497 40,800 864 Climbing Houston Center
Tue 11:39:14 AM 28.9797 -89.1564 284° West 416 479 41,800 968 Climbing Houston Center
Tue 11:40:16 AM 29.0050 -89.2758 284° West 394 453 42,800 581 Climbing Houston Center
Tue 11:41:18 AM 29.0347 -89.4192 283° West 389 448 43,000 97 Climbing Houston Center
Tue 11:42:20 AM 29.0597 -89.5417 283° West 390 449 43,000  Level Houston Center
Tue 11:43:23 AM 29.0856 -89.6683 283° West 406 467 43,000  Level Houston Center
Tue 11:44:25 AM 29.1122 -89.7933 284° West 407 468 43,000  Level Houston Center
Tue 11:46:29 AM 29.1633 -90.0453 283° West 407 468 43,000  Level Houston Center
Tue 11:47:31 AM 29.1956 -90.1936 284° West 402 463 43,000  Level Houston Center
Tue 11:48:34 AM 29.2264 -90.3181 286° West 403 464 43,000  Level Houston Center
Tue 11:49:36 AM 29.2556 -90.4411 285° West 402 463 43,000  Level Houston Center
Tue 11:50:38 AM 29.2850 -90.5617 286° West 399 459 43,000  Level Houston Center
Tue 11:51:40 AM 29.3144 -90.6856 285° West 399 459 43,000  Level Houston Center
Tue 11:52:43 AM 29.3433 -90.8081 285° West 399 459 43,000  Level Houston Center
Tue 11:53:45 AM 29.3778 -90.9564 285° West 400 460 43,000  Level Houston Center
Tue 11:54:47 AM 29.4069 -91.0819 285° West 403 464 43,000  Level Houston Center
Tue 11:55:49 AM 29.4358 -91.2050 285° West 402 463 43,000  Level Houston Center
Tue 11:56:51 AM 29.4644 -91.3308 285° West 403 464 43,000  Level Houston Center
Tue 11:57:53 AM 29.4933 -91.4533 285° West 403 464 43,000  Level Houston Center
Tue 11:58:56 AM 29.5214 -91.5781 285° West 402 463 43,000  Level Houston Center
Tue 11:59:58 AM 29.5564 -91.7289 285° West 403 464 43,000  Level Houston Center
Tue 12:01:00 PM 29.5850 -91.8531 285° West 402 463 43,000  Level Houston Center
Tue 12:02:02 PM 29.6131 -91.9769 285° West 403 464 43,000  Level Houston Center
Tue 12:03:04 PM 29.6575 -92.0950 293° West 405 466 43,000 -48 Level Houston Center
Tue 12:04:07 PM 29.7117 -92.2083 299° West 407 468 42,900  Descending Houston Center
Tue 12:05:09 PM 29.7756 -92.3192 304° West 409 471 43,000 48 Climbing Houston Center
Tue 12:06:11 PM 29.8586 -92.4450 307° West 413 475 43,000  Level Houston Center
Tue 12:07:13 PM 29.9178 -92.5592 301° West 414 476 43,000  Level Houston Center
Tue 12:08:15 PM 29.9483 -92.6842 286° West 409 471 43,000  Level Houston Center
Tue 12:09:18 PM 29.9736 -92.8092 283° West 403 464 43,000  Level Houston Center
Tue 12:10:20 PM 29.9989 -92.9339 283° West 399 459 43,000  Level Houston Center
Tue 12:11:22 PM 30.0300 -93.0842 283° West 399 459 43,000  Level Houston Center
Tue 12:12:24 PM 30.0564 -93.2111 284° West 403 464 43,000  Level Houston Center
Tue 12:13:26 PM 30.0808 -93.3378 283° West 403 464 43,000  Level Houston Center
Tue 12:14:28 PM 30.1072 -93.4667 283° West 406 467 43,000  Level Houston Center
Tue 12:15:31 PM 30.1339 -93.5967 283° West 407 468 43,000  Level Houston Center
Tue 12:16:33 PM 30.1600 -93.7261 283° West 407 468 43,000  Level Houston Center
Tue 12:17:35 PM 30.1856 -93.8522 283° West 403 464 43,000  Level Houston Center
Tue 12:18:37 PM 30.2108 -93.9769 283° West 402 463 43,000  Level Houston Center
Tue 12:19:39 PM 30.2408 -94.1267 283° West 397 457 43,000  Level Houston Center
Tue 12:20:42 PM 30.2650 -94.2506 283° West 397 457 43,000  Level Houston Center
Tue 12:21:44 PM 30.2894 -94.3756 283° West 397 457 43,000  Level Houston Center
Tue 12:22:46 PM 30.3156 -94.5131 282° West 397 457 43,000  Level Houston Center
Tue 12:23:48 PM 30.3397 -94.6375 283° West 397 457 43,000  Level Houston Center
Tue 12:24:50 PM 30.3633 -94.7614 282° West 397 457 43,000  Level Houston Center
Tue 12:25:53 PM 30.3861 -94.8839 282° West 396 456 43,000  Level Houston Center
Tue 12:26:55 PM 30.4108 -95.0069 283° West 395 455 43,000  Level Houston Center
Tue 12:27:57 PM 30.4386 -95.1547 282° West 395 455 43,000  Level Houston Center
Tue 12:28:59 PM 30.4617 -95.2800 282° West 397 457 43,000  Level Houston Center
Tue 12:30:01 PM 30.4853 -95.4039 283° West 397 457 43,000  Level Houston Center
Tue 12:31:04 PM 30.5081 -95.5297 282° West 398 458 43,000  Level Houston Center
Tue 12:32:06 PM 30.5308 -95.6550 282° West 398 458 43,000  Level Houston Center
Tue 12:33:08 PM 30.5578 -95.8047 282° West 398 458 43,000  Level Houston Center
Tue 12:34:10 PM 30.5806 -95.9322 282° West 400 460 43,000  Level Houston Center
Tue 12:35:12 PM 30.6061 -96.0714 282° West 406 467 43,000  Level Houston Center
Tue 12:36:15 PM 30.6306 -96.2000 282° West 406 467 43,000  Level Houston Center
Tue 12:37:17 PM 30.6519 -96.3283 281° West 406 467 43,000  Level Houston Center
Tue 12:38:19 PM 30.6756 -96.4564 282° West 406 467 43,000  Level Houston Center
Tue 12:39:21 PM 30.6972 -96.5836 281° West 405 466 43,000  Level Houston Center
Tue 12:40:23 PM 30.7244 -96.7375 282° West 405 466 43,000  Level Houston Center
Tue 12:41:26 PM 30.7472 -96.8661 282° West 404 465 43,000  Level Houston Center
Tue 12:42:28 PM 30.7686 -96.9933 281° West 404 465 43,000  Level Houston Center
Tue 12:43:30 PM 30.7906 -97.1228 281° West 404 465 43,000  Level Houston Center
Tue 12:44:32 PM 30.8108 -97.2553 280° West 407 468 43,000  Level Houston Center
Tue 12:45:34 PM 30.8344 -97.3908 282° West 412 474 43,000  Level Houston Center
Tue 12:46:37 PM 30.8569 -97.5225 281° West 412 474 43,000  Level Houston Center
Tue 12:47:19 PM 30.8753 -97.6247 282° West 407 468 43,000  Level Fort Worth Center
Tue 12:48:21 PM 30.8969 -97.7550 281° West 408 470 43,000  Level Fort Worth Center
Tue 12:49:23 PM 30.9186 -97.8825 281° West 405 466 43,000  Level Fort Worth Center
Tue 12:50:25 PM 30.9408 -98.0108 281° West 404 465 43,000  Level Fort Worth Center
Tue 12:51:28 PM 30.9611 -98.1389 280° West 404 465 43,000  Level Fort Worth Center
Tue 12:52:30 PM 30.9872 -98.2936 281° West 404 465 43,000  Level Fort Worth Center
Tue 12:53:32 PM 31.0069 -98.4219 280° West 404 465 43,000  Level Fort Worth Center
Tue 12:54:34 PM 31.0264 -98.5494 280° West 405 466 43,000  Level Fort Worth Center
Tue 12:55:36 PM 31.0467 -98.6772 281° West 404 465 43,000  Level Fort Worth Center
Tue 12:56:38 PM 31.0692 -98.8147 281° West 404 465 43,000  Level Fort Worth Center
Tue 12:57:40 PM 31.0903 -98.9428 281° West 404 465 43,000  Level Fort Worth Center
Tue 12:58:43 PM 31.1106 -99.0708 281° West 404 465 43,000  Level Fort Worth Center
Tue 12:59:45 PM 31.1342 -99.2242 280° West 404 465 43,000  Level Fort Worth Center
Tue 01:00:47 PM 31.1525 -99.3503 280° West 402 463 43,000  Level Fort Worth Center
Tue 01:01:49 PM 31.1725 -99.4775 280° West 401 461 43,000  Level Fort Worth Center
Tue 01:02:51 PM 31.1906 -99.6050 279° West 401 461 43,000  Level Fort Worth Center
Tue 01:03:53 PM 31.2086 -99.7267 280° West 381 438 43,000  Level Fort Worth Center
Tue 01:04:55 PM 31.2275 -99.8542 280° West 393 452 43,000  Level Fort Worth Center
Tue 01:05:57 PM 31.2506 -100.0050 280° West 396 456 43,000  Level Fort Worth Center
Tue 01:07:00 PM 31.2700 -100.1308 280° West 396 456 43,000  Level Fort Worth Center
Tue 01:08:02 PM 31.2878 -100.2581 279° West 396 456 43,000  Level Fort Worth Center
Tue 01:09:04 PM 31.3056 -100.3831 279° West 395 455 43,000  Level Fort Worth Center
Tue 01:10:06 PM 31.3242 -100.5097 280° West 395 455 43,000  Level Fort Worth Center
Tue 01:11:08 PM 31.3478 -100.6617 280° West 396 456 43,000  Level Fort Worth Center
Tue 01:12:10 PM 31.3650 -100.7875 279° West 395 455 43,000  Level Fort Worth Center
Tue 01:13:12 PM 31.3814 -100.9117 279° West 395 455 43,000  Level Fort Worth Center
Tue 01:14:15 PM 31.4000 -101.0361 280° West 394 453 43,000  Level Fort Worth Center
Tue 01:15:17 PM 31.4217 -101.1872 280° West 393 452 43,000  Level Fort Worth Center
Tue 01:16:19 PM 31.4378 -101.3142 278° West 393 452 43,000  Level Fort Worth Center
Tue 01:17:21 PM 31.4553 -101.4394 279° West 393 452 43,000  Level Fort Worth Center
Tue 01:18:23 PM 31.4725 -101.5644 279° West 393 452 43,000  Level Fort Worth Center
Tue 01:20:21 PM 31.5058 -101.8139 279° West 392 451 43,000  Level Albuquerque Center
Tue 01:21:23 PM 31.5225 -101.9394 279° West 392 451 43,000  Level Albuquerque Center
Tue 01:22:25 PM 31.5383 -102.0642 279° West 392 451 43,000  Level Albuquerque Center
Tue 01:24:29 PM 31.5742 -102.3389 279° West 392 451 43,000  Level Albuquerque Center
Tue 01:25:30 PM 31.5906 -102.4639 279° West 392 451 43,000  Level Albuquerque Center
Tue 01:26:32 PM 31.6053 -102.5878 278° West 392 451 43,000  Level Albuquerque Center
Tue 01:27:34 PM 31.6197 -102.7131 278° West 392 451 43,000  Level Albuquerque Center
Tue 01:28:36 PM 31.6369 -102.8636 278° West 392 451 43,000  Level Albuquerque Center
Tue 01:29:38 PM 31.6536 -102.9883 279° West 391 450 43,000  Level Albuquerque Center
Tue 01:30:40 PM 31.6686 -103.1144 278° West 391 450 43,000  Level Albuquerque Center
Tue 01:31:41 PM 31.6833 -103.2383 278° West 391 450 43,000  Level Albuquerque Center
Tue 01:32:53 PM 31.7014 -103.3878 278° West 388 447 43,000  Level Fort Worth Center
Tue 01:33:45 PM 31.7133 -103.4931 278° West 389 448 43,000  Level Albuquerque Center
Tue 01:34:47 PM 31.7283 -103.6186 278° West 389 448 43,000  Level Albuquerque Center
Tue 01:35:48 PM 31.7461 -103.7644 278° West 390 449 43,000  Level Albuquerque Center
Tue 01:36:50 PM 31.7600 -103.8908 277° West 390 449 43,000  Level Albuquerque Center
Tue 01:37:52 PM 31.7739 -104.0169 277° West 390 449 43,000  Level Albuquerque Center
Tue 01:38:54 PM 31.7883 -104.1425 278° West 390 449 43,000  Level Albuquerque Center
Tue 01:39:56 PM 31.8033 -104.2686 278° West 390 449 43,000  Level Albuquerque Center
Tue 01:40:57 PM 31.8167 -104.3950 277° West 390 449 43,000  Level Albuquerque Center
Tue 01:41:59 PM 31.8342 -104.5458 278° West 390 449 43,000  Level Albuquerque Center
Tue 01:43:01 PM 31.8464 -104.6728 276° West 390 449 43,000  Level Albuquerque Center
Tue 01:44:03 PM 31.8653 -104.7989 280° West 391 450 43,000  Level Albuquerque Center
Tue 01:45:04 PM 31.8806 -104.9253 278° West 391 450 43,000  Level Albuquerque Center
Tue 01:46:06 PM 31.8925 -105.0514 276° West 391 450 43,000  Level Albuquerque Center
Tue 01:47:08 PM 31.9067 -105.1786 278° West 392 451 43,000  Level Albuquerque Center
Tue 01:48:10 PM 31.9192 -105.3269 276° West 391 450 43,000  Level Albuquerque Center
Tue 01:49:11 PM 31.9328 -105.4539 277° West 392 451 43,000  Level Albuquerque Center
Tue 01:50:13 PM 31.9464 -105.5906 277° West 391 450 43,000  Level Albuquerque Center
Tue 01:51:15 PM 31.9600 -105.7175 277° West 392 451 43,000  Level Albuquerque Center
Tue 01:52:17 PM 31.9742 -105.8536 277° West 391 450 43,000  Level Albuquerque Center
Tue 01:53:18 PM 31.9858 -105.9611 277° West 391 450 43,000  Level Albuquerque Center
Tue 01:54:20 PM 31.9983 -106.0889 277° West 391 450 43,000  Level Albuquerque Center
Tue 01:55:22 PM 32.0142 -106.2411 277° West 392 451 43,000  Level Albuquerque Center
Tue 01:56:24 PM 32.0267 -106.3694 277° West 392 451 43,000  Level Albuquerque Center
Tue 01:57:25 PM 32.0383 -106.4972 276° West 392 451 43,000  Level Albuquerque Center
Tue 01:58:27 PM 32.0497 -106.6242 276° West 392 451 43,000  Level Albuquerque Center
Tue 01:59:29 PM 32.0622 -106.7514 277° West 392 451 43,000  Level Albuquerque Center
Tue 02:00:32 PM 32.0742 -106.8786 276° West 391 450 43,000  Level Albuquerque Center
Tue 02:01:32 PM 32.0850 -107.0064 276° West 391 450 43,000  Level Albuquerque Center
Tue 02:02:34 PM 32.0958 -107.1347 276° West 391 450 43,000  Level Albuquerque Center
Tue 02:03:36 PM 32.1092 -107.2894 276° West 391 450 43,000  Level Albuquerque Center
Tue 02:04:38 PM 32.1203 -107.4172 276° West 391 450 43,000  Level Albuquerque Center
Tue 02:05:40 PM 32.1306 -107.5461 275° West 391 450 43,000  Level Albuquerque Center
Tue 02:06:41 PM 32.1417 -107.6733 276° West 391 450 43,000  Level Albuquerque Center
Tue 02:07:43 PM 32.1519 -107.8008 275° West 391 450 43,000  Level Albuquerque Center
Tue 02:08:45 PM 32.1628 -107.9303 276° West 391 450 43,000  Level Albuquerque Center
Tue 02:09:47 PM 32.1739 -108.0594 276° West 392 451 43,000  Level Albuquerque Center
Tue 02:10:48 PM 32.1847 -108.1883 276° West 392 451 43,000  Level Albuquerque Center
Tue 02:11:50 PM 32.1978 -108.3433 276° West 393 452 43,000  Level Albuquerque Center
Tue 02:12:52 PM 32.2069 -108.4722 275° West 394 453 43,000 -97 Level Albuquerque Center
Tue 02:13:54 PM 32.2172 -108.5997 275° West 394 453 42,800 -537 Descending Albuquerque Center
Tue 02:14:55 PM 32.2281 -108.7317 276° West 400 460 41,900 -927 Descending Albuquerque Center
Tue 02:15:57 PM 32.2417 -108.8661 277° West 409 471 40,900 -968 Descending Albuquerque Center
Tue 02:16:59 PM 32.2514 -108.9994 275° West 409 471 39,900 -968 Descending Albuquerque Center
Tue 02:18:01 PM 32.2597 -109.1314 274° West 408 470 38,900 -1,065 Descending Albuquerque Center
Tue 02:19:03 PM 32.2744 -109.2903 276° West 408 470 37,700 -1,073 Descending Albuquerque Center
Tue 02:20:04 PM 32.3078 -109.4186 287° West 408 470 36,700 -976 Descending Albuquerque Center
Tue 02:21:06 PM 32.3403 -109.5486 287° West 408 470 35,700 -968 Descending Albuquerque Center
Tue 02:22:08 PM 32.3722 -109.6797 286° West 412 474 34,700 -968 Descending Albuquerque Center
Tue 02:23:10 PM 32.4031 -109.8144 285° West 419 482 33,700 -1,024 Descending Albuquerque Center
Tue 02:24:11 PM 32.4422 -109.9672 287° West 427 491 32,600 -1,317 Descending Albuquerque Center
Tue 02:25:13 PM 32.4750 -110.1042 286° West 428 493 31,000 -1,742 Descending Albuquerque Center
Tue 02:26:15 PM 32.5075 -110.2456 285° West 437 503 29,000 -1,984 Descending Albuquerque Center
Tue 02:27:17 PM 32.5406 -110.3897 285° West 450 518 26,900 -2,032 Descending Albuquerque Center
Tue 02:28:19 PM 32.5767 -110.5353 286° West 456 525 24,800 -2,129 Descending Albuquerque Center
Tue 02:29:21 PM 32.6319 -110.6731 296° West 468 539 22,500 -2,195 Descending Albuquerque Center
Tue 02:30:22 PM 32.7031 -110.8025 303° West 468 539 20,300 -2,439 Descending Albuquerque Center
Tue 02:31:24 PM 32.7842 -110.9583 302° West 467 537 17,500 -2,371 Descending Albuquerque Center
Tue 02:32:26 PM 32.8514 -111.0833 303° West 454 522 15,400 -2,032 Descending Albuquerque Center
Tue 02:33:28 PM 32.9158 -111.2053 302° West 442 509 13,300 -2,032 Descending Albuquerque Center
Tue 02:34:30 PM 32.9783 -111.3228 302° West 425 489 11,200 -1,645 Descending Albuquerque Center
Tue 02:35:32 PM 33.0361 -111.4367 301° West 400 460 9,900 -1,161 Descending Albuquerque Center
Tue 02:36:34 PM 33.0769 -111.5267 298° West 312 359 8,800 -1,548 Descending Albuquerque Center
Tue 02:37:36 PM 33.1236 -111.6253 299° West 292 336 6,700 -1,355 Descending Albuquerque Center
Tue 02:38:38 PM 33.1586 -111.7036 298° West 272 313 6,000 -341 Descending Albuquerque Center
Tue 02:39:39 PM 33.1956 -111.7858 298° West 278 320 6,000  Level Albuquerque Center
Tue 02:40:41 PM 33.2328 -111.8717 297° West 287 330 6,000  Level Albuquerque Center
Tue 02:42:19 PM 33.3333 -111.9833 317° Northwest 276 318 6,000  Level Phoenix TRACON
Tue 02:43:31 PM 33.4167 -111.9833 360° North 281 323 6,000 -350 Level Phoenix TRACON
Tue 02:44:19 PM 33.4833 -111.9833 360° North 273 314 5,300 -991 Descending Phoenix TRACON
Tue 02:45:20 PM 33.5500 -111.9500 23° Northeast 248 285 4,200 -850 Descending Phoenix TRACON
Tue 02:46:26 PM 33.6000 -111.8833 48° Northeast 211 243 3,500 -783 Descending Phoenix TRACON
Tue 02:47:38 PM 33.6500 -111.8667 16° North 186 214 2,400 -805 Descending Phoenix TRACON
Tue 02:48:55 PM 33.6153 -111.9147 229° Southwest 154 177 1,500 -701 Descending Albuquerque Center

Login

Don't have an account? Register now (free) for customized features, flight alerts, and more!